Etretat — FIDP — position and weather

sailwx.info

Track history (hours):
 
Tides and Currents Weather Stations Pressure Air Temp Water Temp Dewpoint Dewpoint Depression Visibility Wind Speed Wind Dir Waves Ship Positions

Etretat

Last reported at 2017-Aug-19 16:28 UTC. Time now 2017-Aug-19 17:01 UTC.
Position N 49°48' W 000°15'.

Length 187 m; draft 6 m.

Type: Ship. MMSI: 228022900.

Date/timePositionNaut miles runAvg speedWind from/ knotsBaromVisibWave heightAir tempDewpointWater temp
2017-Aug-19 16:28N 49°48' W 000°15'920.0
2017-Aug-19 16:00N 49°40' W 000°07'1019.6
2017-Aug-19 15:30N 49°32' E 000°00'510.0
2017-Aug-19 15:00N 49°29' E 000°07'0 0.0
2017-Aug-19 14:00N 49°29' E 000°07'0 0.0
2017-Aug-19 13:30N 49°29' E 000°07'0 0.0
2017-Aug-19 13:00N 49°29' E 000°07'0 0.0
2017-Aug-19 12:30N 49°29' E 000°07'0 0.0
2017-Aug-19 12:00N 49°29' E 000°07'0 0.0
2017-Aug-19 11:30N 49°29' E 000°07'0 0.0
2017-Aug-19 11:00N 49°29' E 000°07'0 0.0
2017-Aug-19 10:30N 49°29' E 000°07'0 0.0
2017-Aug-19 10:00N 49°29' E 000°07'0 0.0
2017-Aug-19 09:30N 49°29' E 000°07'0 0.0
2017-Aug-19 09:00N 49°29' E 000°07'0 0.0
2017-Aug-19 08:30N 49°29' E 000°07'0 0.0
2017-Aug-19 08:00N 49°29' E 000°07'0 0.0
2017-Aug-19 07:30N 49°29' E 000°07'0 0.0
2017-Aug-19 07:00N 49°29' E 000°07'0 0.0
2017-Aug-19 06:30N 49°29' E 000°07'0 0.0
2017-Aug-19 06:00N 49°29' E 000°07'1 2.2
2017-Aug-19 05:30N 49°29' E 000°05'714.6
2017-Aug-19 05:00N 49°35' W 000°02'5 9.7
2017-Aug-19 04:30N 49°39' W 000°05'5 9.4
2017-Aug-19 04:00N 49°44' W 000°08'510.6
2017-Aug-19 03:30N 49°49' W 000°11'4410.2
2017-Aug-18 23:09N 50°26' W 000°48'210.1
2017-Aug-18 23:00N 50°28' W 000°49'5 9.5
2017-Aug-18 22:30N 50°32' W 000°51'5 9.2
2017-Aug-18 22:00N 50°36' W 000°54'611.7
2017-Aug-18 21:31N 50°42' W 000°58'713.5
2017-Aug-18 21:00N 50°46' W 001°06'2 4.8
2017-Aug-18 20:30N 50°49' W 001°06'0 0.0
2017-Aug-18 20:01N 50°49' W 001°06'0 0.0
2017-Aug-18 19:31N 50°49' W 001°06'0 0.0
2017-Aug-18 19:01N 50°49' W 001°06'0 0.0
2017-Aug-18 18:30N 50°49' W 001°06'0 0.0
2017-Aug-18 18:00N 50°49' W 001°06'0 0.0
2017-Aug-18 17:30N 50°49' W 001°06'0 0.0
2017-Aug-18 17:00N 50°49' W 001°06'0 0.0
2017-Aug-18 16:30N 50°49' W 001°06'0 0.0
2017-Aug-18 16:00N 50°49' W 001°06'0 0.0
2017-Aug-18 15:31N 50°49' W 001°06'0 0.0
2017-Aug-18 15:00N 50°49' W 001°06'0 0.0
2017-Aug-18 14:30N 50°49' W 001°06'0 0.0
2017-Aug-18 13:30N 50°49' W 001°06'0 0.0
2017-Aug-18 13:00N 50°49' W 001°06'0 0.0
2017-Aug-18 12:30N 50°49' W 001°06'0 0.0
2017-Aug-18 12:00N 50°49' W 001°06'0 0.0
2017-Aug-18 11:31N 50°49' W 001°06'0 0.0
2017-Aug-18 11:00N 50°49' W 001°06'0 0.0
2017-Aug-18 10:30N 50°49' W 001°06'0 0.0
2017-Aug-18 10:00N 50°49' W 001°06'0 0.0
2017-Aug-18 09:30N 50°49' W 001°06'0 0.0
2017-Aug-18 09:00N 50°49' W 001°06'0 0.0
2017-Aug-18 08:30N 50°49' W 001°06'0 0.0
2017-Aug-18 08:00N 50°49' W 001°06'0 0.0
2017-Aug-18 07:30N 50°49' W 001°06'0 0.0
2017-Aug-18 07:01N 50°49' W 001°06'1 2.2
2017-Aug-18 06:30N 50°48' W 001°07'713.0
2017-Aug-18 06:00N 50°43' W 000°60'815.5
2017-Aug-18 05:30N 50°36' W 000°53'714.0
2017-Aug-18 05:00N 50°31' W 000°47'1614.4
2017-Aug-18 03:55N 50°17' W 000°34'2514.3
2017-Aug-18 02:09N 49°54' W 000°18'214.1
2017-Aug-18 02:00N 49°52' W 000°17'714.1
2017-Aug-18 01:30N 49°46' W 000°12'713.7
2017-Aug-18 01:00N 49°40' W 000°07'510.2
2017-Aug-18 00:30N 49°35' W 000°06'1 1.1
2017-Aug-18 00:00N 49°35' W 000°06'0 0.5
2017-Aug-17 23:30N 49°35' W 000°05'0 0.8
2017-Aug-17 23:00N 49°35' W 000°05'1 1.0
2017-Aug-17 22:30N 49°36' W 000°04'0 0.9
2017-Aug-17 22:00N 49°36' W 000°04'0 0.5
2017-Aug-17 21:30N 49°36' W 000°04'0 0.6
2017-Aug-17 21:00N 49°36' W 000°03'1 1.8
2017-Aug-17 20:30N 49°36' W 000°02'815.4
2017-Aug-17 20:00N 49°29' E 000°04'2 3.3
2017-Aug-17 19:30N 49°29' E 000°07'0 0.0
2017-Aug-17 19:00N 49°29' E 000°07'0 0.0
2017-Aug-17 18:30N 49°29' E 000°07'0 0.0
2017-Aug-17 18:00N 49°29' E 000°07'0 0.0
2017-Aug-17 17:30N 49°29' E 000°07'0 0.0
2017-Aug-17 17:00N 49°29' E 000°07'0 0.0
2017-Aug-17 16:30N 49°29' E 000°07'0 0.0
2017-Aug-17 16:00N 49°29' E 000°07'0 0.0
2017-Aug-17 15:30N 49°29' E 000°07'0 0.0
2017-Aug-17 15:00N 49°29' E 000°07'0 0.0
2017-Aug-17 14:30N 49°29' E 000°07'0 0.0
2017-Aug-17 14:00N 49°29' E 000°07'0 0.0
2017-Aug-17 13:30N 49°29' E 000°07'0 0.0
2017-Aug-17 13:00N 49°29' E 000°07'0 0.0
2017-Aug-17 12:30N 49°29' E 000°07'0 0.0
2017-Aug-17 12:00N 49°29' E 000°07'0 0.0
2017-Aug-17 11:30N 49°29' E 000°07'0 0.0
2017-Aug-17 11:00N 49°29' E 000°07'0 0.0
2017-Aug-17 10:30N 49°29' E 000°07'0 0.0
2017-Aug-17 10:00N 49°29' E 000°07'0 0.0
2017-Aug-17 09:30N 49°29' E 000°07'0 0.0
2017-Aug-17 09:00N 49°29' E 000°07'0 0.0
2017-Aug-17 08:30N 49°29' E 000°07'0 0.0
2017-Aug-17 08:00N 49°29' E 000°07'0 0.0
2017-Aug-17 07:30N 49°29' E 000°07'0 0.0
2017-Aug-17 07:00N 49°29' E 000°07'0 0.0
2017-Aug-17 06:30N 49°29' E 000°07'2 4.8
2017-Aug-17 06:00N 49°30' E 000°03'815.2
2017-Aug-17 05:31N 49°36' W 000°04'3 6.0
2017-Aug-17 05:01N 49°39' W 000°04'1 2.4
2017-Aug-17 04:30N 49°38' W 000°04'1 2.4
2017-Aug-17 04:00N 49°39' W 000°05'815.4
2017-Aug-17 03:30N 49°45' W 000°11'2814.5
2017-Aug-17 01:36N 50°09' W 000°32'2315.0
2017-Aug-17 00:05N 50°30' W 000°47'115.7
2017-Aug-17 00:00N 50°31' W 000°48'714.3
2017-Aug-16 23:31N 50°37' W 000°54'713.2
2017-Aug-16 23:01N 50°43' W 000°60'612.9
2017-Aug-16 22:30N 50°47' W 001°07'1 2.7
2017-Aug-16 22:00N 50°49' W 001°06'0 0.0
2017-Aug-16 21:30N 50°49' W 001°06'0 0.0
2017-Aug-16 21:00N 50°49' W 001°06'0 0.0
2017-Aug-16 20:30N 50°49' W 001°06'1 1.5
2017-Aug-16 20:01N 50°48' W 001°07'714.0
2017-Aug-16 19:30N 50°43' W 000°60'1020.8
2017-Aug-16 19:01N 50°34' W 000°50'1121.3
2017-Aug-16 18:31N 50°25' W 000°42'1120.8
2017-Aug-16 17:59N 50°15' W 000°36'1021.0
2017-Aug-16 17:31N 50°06' W 000°28'1020.7
2017-Aug-16 17:00N 49°57' W 000°20'1020.6
2017-Aug-16 16:30N 49°48' W 000°13'1020.8
2017-Aug-16 16:01N 49°39' W 000°06'1019.8
2017-Aug-16 15:30N 49°30' E 000°02'4 7.2
2017-Aug-16 15:01N 49°29' E 000°07'0 0.0
2017-Aug-16 14:31N 49°29' E 000°07'0 0.0
2017-Aug-16 14:01N 49°29' E 000°07'0 0.0
2017-Aug-16 13:31N 49°29' E 000°07'0 0.0
2017-Aug-16 13:01N 49°29' E 000°07'0 0.0
2017-Aug-16 12:31N 49°29' E 000°07'0 0.0
2017-Aug-16 12:01N 49°29' E 000°07'0 0.0
2017-Aug-16 11:31N 49°29' E 000°07'0 0.0
2017-Aug-16 11:01N 49°29' E 000°07'0 0.0
2017-Aug-16 10:31N 49°29' E 000°07'0 0.0
2017-Aug-16 10:01N 49°29' E 000°07'0 0.0
2017-Aug-16 09:31N 49°29' E 000°07'0 0.0
2017-Aug-16 09:01N 49°29' E 000°07'0 0.0
2017-Aug-16 08:31N 49°29' E 000°07'0 0.0
2017-Aug-16 08:01N 49°29' E 000°07'0 0.0
2017-Aug-16 07:31N 49°29' E 000°07'0 0.0
2017-Aug-16 07:01N 49°29' E 000°07'0 0.0
2017-Aug-16 06:31N 49°29' E 000°07'2 4.5
2017-Aug-16 06:00N 49°30' E 000°03'714.0
2017-Aug-16 05:30N 49°35' W 000°03'611.1
2017-Aug-16 05:01N 49°41' W 000°05'1 1.4
2017-Aug-16 04:30N 49°40' W 000°06'1 2.6
2017-Aug-16 04:00N 49°41' W 000°08'714.3
2017-Aug-16 03:30N 49°47' W 000°14'714.4
2017-Aug-16 02:59N 49°53' W 000°19'714.5
2017-Aug-16 02:30N 49°60' W 000°24'714.7
2017-Aug-16 02:01N 50°06' W 000°29'714.6
2017-Aug-16 01:31N 50°13' W 000°34'816.8
2017-Aug-16 01:00N 50°21' W 000°39'714.3
2017-Aug-16 00:31N 50°27' W 000°45'714.3
2017-Aug-16 00:00N 50°32' W 000°52'815.6
2017-Aug-15 23:30N 50°39' W 000°58'713.1
2017-Aug-15 23:00N 50°44' W 001°04'4 9.0
2017-Aug-15 22:30N 50°49' W 001°06'0 0.0
2017-Aug-15 22:00N 50°49' W 001°06'0 0.0
2017-Aug-15 21:30N 50°49' W 001°06'0 0.0
2017-Aug-15 21:00N 50°49' W 001°06'0 0.0
2017-Aug-15 20:30N 50°49' W 001°06'2 3.4
2017-Aug-15 20:00N 50°47' W 001°06'612.8
2017-Aug-15 19:30N 50°42' W 000°60'1019.7
2017-Aug-15 19:00N 50°35' W 000°50'1020.3
2017-Aug-15 18:31N 50°25' W 000°43'1020.1
2017-Aug-15 18:00N 50°17' W 000°35'1020.5
2017-Aug-15 17:30N 50°07' W 000°28'1020.5
2017-Aug-15 17:01N 49°58' W 000°21'1120.3
2017-Aug-15 16:29N 49°49' W 000°13'1020.4
2017-Aug-15 16:00N 49°40' W 000°06'1019.8
2017-Aug-15 15:30N 49°32' E 000°01'5 9.3
2017-Aug-15 15:00N 49°29' E 000°07'0 0.0
2017-Aug-15 14:30N 49°29' E 000°07'0 0.0
2017-Aug-15 14:00N 49°29' E 000°07'0 0.0
2017-Aug-15 13:30N 49°29' E 000°07'0 0.0
2017-Aug-15 13:00N 49°29' E 000°07'0 0.0
2017-Aug-15 12:30N 49°29' E 000°07'0 0.0
2017-Aug-15 12:00N 49°29' E 000°07'0 0.0
2017-Aug-15 11:30N 49°29' E 000°07'0 0.0
2017-Aug-15 11:00N 49°29' E 000°07'0 0.0
2017-Aug-15 10:30N 49°29' E 000°07'0 0.0
2017-Aug-15 10:00N 49°29' E 000°07'0 0.0
2017-Aug-15 09:30N 49°29' E 000°07'0 0.0
2017-Aug-15 09:00N 49°29' E 000°07'0 0.0
2017-Aug-15 08:30N 49°29' E 000°07'0 0.0
2017-Aug-15 08:00N 49°29' E 000°07'0 0.0
2017-Aug-15 07:30N 49°29' E 000°07'0 0.0
2017-Aug-15 07:00N 49°29' E 000°07'0 0.0
2017-Aug-15 06:30N 49°29' E 000°07'2 3.4
2017-Aug-15 06:01N 49°29' E 000°04'1019.5
2017-Aug-15 05:30N 49°37' W 000°05'3 5.3
2017-Aug-15 05:00N 49°40' W 000°05'0 0.9
2017-Aug-15 04:31N 49°40' W 000°05'1 1.1
2017-Aug-15 04:00N 49°41' W 000°05'713.2
2017-Aug-15 03:30N 49°46' W 000°11'815.1
2017-Aug-15 03:00N 49°52' W 000°16'815.2
2017-Aug-15 02:30N 49°59' W 000°22'815.3
2017-Aug-15 02:00N 50°06' W 000°27'815.4
2017-Aug-15 01:30N 50°13' W 000°32'815.5
2017-Aug-15 01:00N 50°20' W 000°38'815.4
2017-Aug-15 00:30N 50°26' W 000°45'815.7
2017-Aug-15 00:00N 50°33' W 000°51'815.7
2017-Aug-14 23:30N 50°40' W 000°57'815.1
2017-Aug-14 23:01N 50°45' W 001°05'4 7.1
2017-Aug-14 22:31N 50°49' W 001°06'0 0.0
2017-Aug-14 22:01N 50°49' W 001°06'0 0.0
2017-Aug-14 21:30N 50°49' W 001°06'0 0.0
2017-Aug-14 21:00N 50°49' W 001°06'0 0.1
2017-Aug-14 20:30N 50°49' W 001°06'2 4.6
2017-Aug-14 20:00N 50°46' W 001°06'611.7
2017-Aug-14 19:30N 50°43' W 000°59'918.6
2017-Aug-14 19:00N 50°34' W 000°52'917.6
2017-Aug-14 18:30N 50°26' W 000°46'918.5
2017-Aug-14 18:00N 50°18' W 000°39'1020.5
2017-Aug-14 17:30N 50°09' W 000°31'1121.3
2017-Aug-14 17:00N 49°60' W 000°24'1121.2
2017-Aug-14 16:30N 49°50' W 000°16'1020.9
2017-Aug-14 16:00N 49°41' W 000°09'1020.5
2017-Aug-14 15:30N 49°32' W 000°00'611.4
2017-Aug-14 15:00N 49°29' E 000°07'0 0.0
2017-Aug-14 14:30N 49°29' E 000°07'0 0.0
2017-Aug-14 14:00N 49°29' E 000°07'0 0.0
2017-Aug-14 13:30N 49°29' E 000°07'0 0.0
2017-Aug-14 13:00N 49°29' E 000°07'0 0.0
2017-Aug-14 12:30N 49°29' E 000°07'0 0.0
2017-Aug-14 12:00N 49°29' E 000°07'0 0.0
2017-Aug-14 11:30N 49°29' E 000°07'0 0.0
2017-Aug-14 11:00N 49°29' E 000°07'0 0.0
2017-Aug-14 10:31N 49°29' E 000°07'0 0.0
2017-Aug-14 10:00N 49°29' E 000°07'0 0.0
2017-Aug-14 09:30N 49°29' E 000°07'0 0.0
2017-Aug-14 09:00N 49°29' E 000°07'0 0.0
2017-Aug-14 08:31N 49°29' E 000°07'0 0.0
2017-Aug-14 08:00N 49°29' E 000°07'0 0.0
2017-Aug-14 07:30N 49°29' E 000°07'0 0.0
2017-Aug-14 07:00N 49°29' E 000°07'0 0.0
2017-Aug-14 06:30N 49°29' E 000°07'2 3.6
2017-Aug-14 06:00N 49°29' E 000°04'1019.2
2017-Aug-14 05:30N 49°38' W 000°03'2 4.4
2017-Aug-14 05:00N 49°40' W 000°04'0 0.5
2017-Aug-14 04:30N 49°40' W 000°04'2 3.4
2017-Aug-14 04:00N 49°41' W 000°05'714.2
2017-Aug-14 03:30N 49°47' W 000°12'714.5
2017-Aug-14 03:00N 49°54' W 000°16'714.8
2017-Aug-14 02:30N 50°01' W 000°21'714.9
2017-Aug-14 02:00N 50°07' W 000°26'715.0
2017-Aug-14 01:30N 50°14' W 000°31'715.0
2017-Aug-14 01:00N 50°20' W 000°37'714.8
2017-Aug-14 00:30N 50°27' W 000°43'815.2
2017-Aug-14 00:00N 50°33' W 000°49'815.5
2017-Aug-13 23:30N 50°40' W 000°56'714.9
2017-Aug-13 23:00N 50°44' W 001°05'4 8.4
2017-Aug-13 22:30N 50°49' W 001°06'0 0.0
2017-Aug-13 22:01N 50°49' W 001°06'0 0.0
2017-Aug-13 21:31N 50°49' W 001°06'0 0.0
2017-Aug-13 21:00N 50°49' W 001°06'0 0.0
2017-Aug-13 20:30N 50°49' W 001°06'1 2.7
2017-Aug-13 20:01N 50°47' W 001°07'714.0
2017-Aug-13 19:31N 50°43' W 000°59'918.1
2017-Aug-13 19:00N 50°34' W 000°53'919.0
2017-Aug-13 18:30N 50°26' W 000°45'918.6
2017-Aug-13 18:01N 50°18' W 000°38'1019.2
2017-Aug-13 17:30N 50°09' W 000°31'1019.1
2017-Aug-13 17:01N 50°01' W 000°24'1320.5
2017-Aug-13 16:23N 49°50' W 000°15'821.4
2017-Aug-13 16:01N 49°43' W 000°09'1020.7
2017-Aug-13 15:31N 49°34' W 000°02'713.9
2017-Aug-13 15:00N 49°29' E 000°07'0 0.0
2017-Aug-13 14:30N 49°29' E 000°07'0 0.0
2017-Aug-13 14:01N 49°29' E 000°07'0 0.0
2017-Aug-13 13:31N 49°29' E 000°07'0 0.0
2017-Aug-13 13:00N 49°29' E 000°07'0 0.0
2017-Aug-13 12:30N 49°29' E 000°07'0 0.0
2017-Aug-13 12:01N 49°29' E 000°07'0 0.0
2017-Aug-13 11:30N 49°29' E 000°07'0 0.0
2017-Aug-13 11:00N 49°29' E 000°07'0 0.0
2017-Aug-13 10:31N 49°29' E 000°07'0 0.0
2017-Aug-13 10:00N 49°29' E 000°07'0 0.0
2017-Aug-13 09:30N 49°29' E 000°07'0 0.0
2017-Aug-13 09:01N 49°29' E 000°07'0 0.0
2017-Aug-13 08:31N 49°29' E 000°07'0 0.0
2017-Aug-13 08:00N 49°29' E 000°07'0 0.0
2017-Aug-13 07:30N 49°29' E 000°07'0 0.0
2017-Aug-13 07:00N 49°29' E 000°07'0 0.0
2017-Aug-13 06:30N 49°29' E 000°07'1 2.9
2017-Aug-13 06:00N 49°29' E 000°05'815.7
2017-Aug-13 05:30N 49°34' W 000°05'510.5
2017-Aug-13 05:00N 49°38' W 000°11'510.3
2017-Aug-13 04:30N 49°42' W 000°16'8 9.4
2017-Aug-13 03:39N 49°50' W 000°19'210.6
2017-Aug-13 03:29N 49°52' W 000°18'2610.4
2017-Aug-13 01:01N 50°14' W 000°36'1714.9
2017-Aug-12 23:52N 50°30' W 000°48'615.5
2017-Aug-12 23:31N 50°35' W 000°52'815.1
2017-Aug-12 23:01N 50°41' W 000°57'714.6
2017-Aug-12 22:30N 50°46' W 001°06'2 4.5
2017-Aug-12 22:00N 50°49' W 001°06'0 0.0
2017-Aug-12 21:30N 50°49' W 001°06'0 0.0
2017-Aug-12 21:00N 50°49' W 001°06'0 0.0
2017-Aug-12 20:30N 50°49' W 001°06'0 0.8
2017-Aug-12 20:01N 50°49' W 001°06'611.7
2017-Aug-12 19:30N 50°44' W 001°02'917.8
2017-Aug-12 19:00N 50°36' W 000°54'1319.7
2017-Aug-12 18:22N 50°24' W 000°48'3320.4
2017-Aug-12 16:46N 49°57' W 000°21'620.7
2017-Aug-12 16:30N 49°52' W 000°17'1020.5
2017-Aug-12 16:00N 49°43' W 000°09'1020.3
2017-Aug-12 15:30N 49°34' W 000°02'714.4
2017-Aug-12 15:00N 49°29' E 000°07'0 0.0
2017-Aug-12 14:30N 49°29' E 000°07'0 0.0
2017-Aug-12 14:01N 49°29' E 000°07'0 0.0
2017-Aug-12 13:30N 49°29' E 000°07'0 0.0
2017-Aug-12 13:01N 49°29' E 000°07'0 0.0
2017-Aug-12 12:30N 49°29' E 000°07'0 0.0
2017-Aug-12 12:01N 49°29' E 000°07'0 0.0
2017-Aug-12 11:30N 49°29' E 000°07'0 0.0
2017-Aug-12 11:00N 49°29' E 000°07'0 0.0
2017-Aug-12 10:31N 49°29' E 000°07'0 0.0
2017-Aug-12 10:01N 49°29' E 000°07'0 0.0
2017-Aug-12 09:31N 49°29' E 000°07'0 0.0
2017-Aug-12 09:01N 49°29' E 000°07'0 0.0
2017-Aug-12 08:30N 49°29' E 000°07'0 0.0
2017-Aug-12 08:00N 49°29' E 000°07'0 0.0
2017-Aug-12 07:30N 49°29' E 000°07'0 0.0
2017-Aug-12 07:00N 49°29' E 000°07'0 0.0
2017-Aug-12 06:30N 49°29' E 000°07'0 0.0
2017-Aug-12 06:00N 49°29' E 000°07'1 2.9
2017-Aug-12 05:31N 49°29' E 000°04'714.5
2017-Aug-12 05:00N 49°35' W 000°03'611.3
2017-Aug-12 04:30N 49°40' W 000°07'611.0
2017-Aug-12 04:00N 49°45' W 000°11'44 9.9
2017-Aug-11 23:29N 50°23' W 000°46'5 9.8
2017-Aug-11 23:00N 50°27' W 000°49'510.0
2017-Aug-11 22:30N 50°32' W 000°51'510.2
2017-Aug-11 22:00N 50°37' W 000°54'510.1
2017-Aug-11 21:30N 50°41' W 000°58'612.4
2017-Aug-11 21:01N 50°45' W 001°05'3 6.8
2017-Aug-11 20:30N 50°49' W 001°06'0 0.0
2017-Aug-11 20:00N 50°49' W 001°06'0 0.0
2017-Aug-11 19:31N 50°49' W 001°06'0 0.0
2017-Aug-11 19:01N 50°49' W 001°06'0 0.0
2017-Aug-11 18:31N 50°49' W 001°06'0 0.0
2017-Aug-11 18:01N 50°49' W 001°06'0 0.0
2017-Aug-11 17:30N 50°49' W 001°06'0 0.0
2017-Aug-11 17:00N 50°49' W 001°06'0 0.0
2017-Aug-11 16:30N 50°49' W 001°06'0 0.0
2017-Aug-11 16:00N 50°49' W 001°06'0 0.0
2017-Aug-11 15:30N 50°49' W 001°06'0 0.0
2017-Aug-11 15:00N 50°49' W 001°06'0 0.0
2017-Aug-11 14:30N 50°49' W 001°06'0 0.0
2017-Aug-11 13:30N 50°49' W 001°06'0 0.0
2017-Aug-11 13:00N 50°49' W 001°06'0 0.0
2017-Aug-11 12:30N 50°49' W 001°06'0 0.0
2017-Aug-11 12:00N 50°49' W 001°06'0 0.0
2017-Aug-11 11:30N 50°49' W 001°06'0 0.0
2017-Aug-11 11:00N 50°49' W 001°06'0 0.0
2017-Aug-11 10:30N 50°49' W 001°06'0 0.0
2017-Aug-11 10:00N 50°49' W 001°06'0 0.0
2017-Aug-11 09:30N 50°49' W 001°06'0 0.0
2017-Aug-11 08:58N 50°49' W 001°06'0 0.0
2017-Aug-11 08:30N 50°49' W 001°06'0 0.0
2017-Aug-11 08:00N 50°49' W 001°06'0 0.0
2017-Aug-11 07:30N 50°49' W 001°06'0 0.0
2017-Aug-11 07:00N 50°49' W 001°06'1 2.0
2017-Aug-11 06:30N 50°48' W 001°07'713.5
2017-Aug-11 06:00N 50°43' W 000°60'816.4
2017-Aug-11 05:30N 50°36' W 000°52'816.1
2017-Aug-11 05:00N 50°29' W 000°46'815.2
2017-Aug-11 04:30N 50°23' W 000°40'714.2
2017-Aug-11 04:00N 50°16' W 000°36'1014.9
2017-Aug-11 03:21N 50°07' W 000°29'615.5
2017-Aug-11 02:59N 50°02' W 000°25'1015.3
2017-Aug-11 02:22N 49°54' W 000°18'515.3
2017-Aug-11 02:00N 49°49' W 000°14'815.2
2017-Aug-11 01:30N 49°43' W 000°07'714.0
2017-Aug-11 01:00N 49°38' W 000°00'0 0.5
2017-Aug-11 00:30N 49°38' W 000°00'0 0.5
2017-Aug-11 00:00N 49°38' W 000°00'0 0.7
2017-Aug-10 23:30N 49°38' W 000°01'0 0.7
2017-Aug-10 23:00N 49°38' W 000°01'0 0.7
2017-Aug-10 22:30N 49°38' W 000°02'0 0.6
2017-Aug-10 22:00N 49°38' W 000°02'0 0.4
2017-Aug-10 21:30N 49°38' W 000°03'1 2.8
2017-Aug-10 21:00N 49°36' W 000°03'510.8
2017-Aug-10 20:31N 49°31' E 000°00'5 9.2
2017-Aug-10 20:00N 49°29' E 000°07'0 0.0
2017-Aug-10 19:30N 49°29' E 000°07'0 0.0
2017-Aug-10 19:00N 49°29' E 000°07'0 0.0
2017-Aug-10 18:30N 49°29' E 000°07'0 0.0
2017-Aug-10 18:00N 49°29' E 000°07'0 0.0
2017-Aug-10 17:30N 49°29' E 000°07'0 0.0
2017-Aug-10 17:00N 49°29' E 000°07'0 0.0
2017-Aug-10 16:30N 49°29' E 000°07'0 0.0
2017-Aug-10 16:00N 49°29' E 000°07'0 0.0
2017-Aug-10 15:30N 49°29' E 000°07'0 0.0
2017-Aug-10 15:00N 49°29' E 000°07'0 0.0
2017-Aug-10 14:30N 49°29' E 000°07'0 0.0
2017-Aug-10 14:00N 49°29' E 000°07'0 0.0
2017-Aug-10 13:30N 49°29' E 000°07'0 0.0
2017-Aug-10 13:00N 49°29' E 000°07'0 0.0
2017-Aug-10 12:30N 49°29' E 000°07'0 0.0
2017-Aug-10 12:00N 49°29' E 000°07'0 0.0
2017-Aug-10 11:30N 49°29' E 000°07'0 0.0
2017-Aug-10 11:00N 49°29' E 000°07'0 0.0
2017-Aug-10 10:30N 49°29' E 000°07'0 0.0
2017-Aug-10 10:00N 49°29' E 000°07'0 0.0
2017-Aug-10 09:30N 49°29' E 000°07'0 0.0
2017-Aug-10 09:00N 49°29' E 000°07'0 0.0
2017-Aug-10 08:30N 49°29' E 000°07'0 0.0
2017-Aug-10 08:00N 49°29' E 000°07'0 0.0
2017-Aug-10 07:30N 49°29' E 000°07'0 0.0
2017-Aug-10 07:00N 49°29' E 000°07'0 0.0
2017-Aug-10 06:30N 49°29' E 000°07'1 2.2
2017-Aug-10 06:01N 49°29' E 000°05'815.1
2017-Aug-10 05:31N 49°35' W 000°03'714.3
2017-Aug-10 05:01N 49°41' W 000°08'713.6
2017-Aug-10 04:31N 49°47' W 000°13'510.7
2017-Aug-10 04:00N 49°52' W 000°18'4411.7
2017-Aug-10 00:12N 50°31' W 000°49'314.8
2017-Aug-10 00:01N 50°34' W 000°51'714.5
2017-Aug-09 23:31N 50°40' W 000°56'714.6
2017-Aug-09 23:01N 50°45' W 001°05'4 7.7
2017-Aug-09 22:30N 50°49' W 001°06'0 0.0
2017-Aug-09 22:01N 50°49' W 001°06'0 0.0
2017-Aug-09 21:30N 50°49' W 001°06'0 0.0
2017-Aug-09 21:00N 50°49' W 001°06'0 0.0
2017-Aug-09 20:30N 50°49' W 001°06'1 1.7
2017-Aug-09 20:00N 50°48' W 001°07'612.3
2017-Aug-09 19:31N 50°43' W 001°01'918.2
2017-Aug-09 19:01N 50°36' W 000°53'1019.1
2017-Aug-09 18:30N 50°28' W 000°44'4120.6
2017-Aug-09 16:32N 49°51' W 000°16'121.6
2017-Aug-09 16:30N 49°51' W 000°16'  
Track history (hours):
 
Tides and Currents Weather Stations Pressure Air Temp Water Temp Dewpoint Dewpoint Depression Visibility Wind Speed Wind Dir Waves Ship Positions

Etretat

Last reported at 2017-Aug-19 16:28 UTC. Time now 2017-Aug-19 17:01 UTC.
Position N 49°48' W 000°15'.

Length 187 m; draft 6 m.

Type: Ship. MMSI: 228022900.

Date/timePositionNaut miles runAvg speedWind from/ knotsBaromVisibWave heightAir tempDewpointWater temp
2017-Aug-19 16:28N 49°48' W 000°15'920.0
2017-Aug-19 16:00N 49°40' W 000°07'1019.6
2017-Aug-19 15:30N 49°32' E 000°00'510.0
2017-Aug-19 15:00N 49°29' E 000°07'0 0.0
2017-Aug-19 14:00N 49°29' E 000°07'0 0.0
2017-Aug-19 13:30N 49°29' E 000°07'0 0.0
2017-Aug-19 13:00N 49°29' E 000°07'0 0.0
2017-Aug-19 12:30N 49°29' E 000°07'0 0.0
2017-Aug-19 12:00N 49°29' E 000°07'0 0.0
2017-Aug-19 11:30N 49°29' E 000°07'0 0.0
2017-Aug-19 11:00N 49°29' E 000°07'0 0.0
2017-Aug-19 10:30N 49°29' E 000°07'0 0.0
2017-Aug-19 10:00N 49°29' E 000°07'0 0.0
2017-Aug-19 09:30N 49°29' E 000°07'0 0.0
2017-Aug-19 09:00N 49°29' E 000°07'0 0.0
2017-Aug-19 08:30N 49°29' E 000°07'0 0.0
2017-Aug-19 08:00N 49°29' E 000°07'0 0.0
2017-Aug-19 07:30N 49°29' E 000°07'0 0.0
2017-Aug-19 07:00N 49°29' E 000°07'0 0.0
2017-Aug-19 06:30N 49°29' E 000°07'0 0.0
2017-Aug-19 06:00N 49°29' E 000°07'1 2.2
2017-Aug-19 05:30N 49°29' E 000°05'714.6
2017-Aug-19 05:00N 49°35' W 000°02'5 9.7
2017-Aug-19 04:30N 49°39' W 000°05'5 9.4
2017-Aug-19 04:00N 49°44' W 000°08'510.6
2017-Aug-19 03:30N 49°49' W 000°11'4410.2
2017-Aug-18 23:09N 50°26' W 000°48'210.1
2017-Aug-18 23:00N 50°28' W 000°49'5 9.5
2017-Aug-18 22:30N 50°32' W 000°51'5 9.2
2017-Aug-18 22:00N 50°36' W 000°54'611.7
2017-Aug-18 21:31N 50°42' W 000°58'713.5
2017-Aug-18 21:00N 50°46' W 001°06'2 4.8
2017-Aug-18 20:30N 50°49' W 001°06'0 0.0
2017-Aug-18 20:01N 50°49' W 001°06'0 0.0
2017-Aug-18 19:31N 50°49' W 001°06'0 0.0
2017-Aug-18 19:01N 50°49' W 001°06'0 0.0
2017-Aug-18 18:30N 50°49' W 001°06'0 0.0
2017-Aug-18 18:00N 50°49' W 001°06'0 0.0
2017-Aug-18 17:30N 50°49' W 001°06'0 0.0
2017-Aug-18 17:00N 50°49' W 001°06'0 0.0
2017-Aug-18 16:30N 50°49' W 001°06'0 0.0
2017-Aug-18 16:00N 50°49' W 001°06'0 0.0
2017-Aug-18 15:31N 50°49' W 001°06'0 0.0
2017-Aug-18 15:00N 50°49' W 001°06'0 0.0
2017-Aug-18 14:30N 50°49' W 001°06'0 0.0
2017-Aug-18 13:30N 50°49' W 001°06'0 0.0
2017-Aug-18 13:00N 50°49' W 001°06'0 0.0
2017-Aug-18 12:30N 50°49' W 001°06'0 0.0
2017-Aug-18 12:00N 50°49' W 001°06'0 0.0
2017-Aug-18 11:31N 50°49' W 001°06'0 0.0
2017-Aug-18 11:00N 50°49' W 001°06'0 0.0
2017-Aug-18 10:30N 50°49' W 001°06'0 0.0
2017-Aug-18 10:00N 50°49' W 001°06'0 0.0
2017-Aug-18 09:30N 50°49' W 001°06'0 0.0
2017-Aug-18 09:00N 50°49' W 001°06'0 0.0
2017-Aug-18 08:30N 50°49' W 001°06'0 0.0
2017-Aug-18 08:00N 50°49' W 001°06'0 0.0
2017-Aug-18 07:30N 50°49' W 001°06'0 0.0
2017-Aug-18 07:01N 50°49' W 001°06'1 2.2
2017-Aug-18 06:30N 50°48' W 001°07'713.0
2017-Aug-18 06:00N 50°43' W 000°60'815.5
2017-Aug-18 05:30N 50°36' W 000°53'714.0
2017-Aug-18 05:00N 50°31' W 000°47'1614.4
2017-Aug-18 03:55N 50°17' W 000°34'2514.3
2017-Aug-18 02:09N 49°54' W 000°18'214.1
2017-Aug-18 02:00N 49°52' W 000°17'714.1
2017-Aug-18 01:30N 49°46' W 000°12'713.7
2017-Aug-18 01:00N 49°40' W 000°07'510.2
2017-Aug-18 00:30N 49°35' W 000°06'1 1.1
2017-Aug-18 00:00N 49°35' W 000°06'0 0.5
2017-Aug-17 23:30N 49°35' W 000°05'0 0.8
2017-Aug-17 23:00N 49°35' W 000°05'1 1.0
2017-Aug-17 22:30N 49°36' W 000°04'0 0.9
2017-Aug-17 22:00N 49°36' W 000°04'0 0.5
2017-Aug-17 21:30N 49°36' W 000°04'0 0.6
2017-Aug-17 21:00N 49°36' W 000°03'1 1.8
2017-Aug-17 20:30N 49°36' W 000°02'815.4
2017-Aug-17 20:00N 49°29' E 000°04'2 3.3
2017-Aug-17 19:30N 49°29' E 000°07'0 0.0
2017-Aug-17 19:00N 49°29' E 000°07'0 0.0
2017-Aug-17 18:30N 49°29' E 000°07'0 0.0
2017-Aug-17 18:00N 49°29' E 000°07'0 0.0
2017-Aug-17 17:30N 49°29' E 000°07'0 0.0
2017-Aug-17 17:00N 49°29' E 000°07'0 0.0
2017-Aug-17 16:30N 49°29' E 000°07'0 0.0
2017-Aug-17 16:00N 49°29' E 000°07'0 0.0
2017-Aug-17 15:30N 49°29' E 000°07'0 0.0
2017-Aug-17 15:00N 49°29' E 000°07'0 0.0
2017-Aug-17 14:30N 49°29' E 000°07'0 0.0
2017-Aug-17 14:00N 49°29' E 000°07'0 0.0
2017-Aug-17 13:30N 49°29' E 000°07'0 0.0
2017-Aug-17 13:00N 49°29' E 000°07'0 0.0
2017-Aug-17 12:30N 49°29' E 000°07'0 0.0
2017-Aug-17 12:00N 49°29' E 000°07'0 0.0
2017-Aug-17 11:30N 49°29' E 000°07'0 0.0
2017-Aug-17 11:00N 49°29' E 000°07'0 0.0
2017-Aug-17 10:30N 49°29' E 000°07'0 0.0
2017-Aug-17 10:00N 49°29' E 000°07'0 0.0
2017-Aug-17 09:30N 49°29' E 000°07'0 0.0
2017-Aug-17 09:00N 49°29' E 000°07'0 0.0
2017-Aug-17 08:30N 49°29' E 000°07'0 0.0
2017-Aug-17 08:00N 49°29' E 000°07'0 0.0
2017-Aug-17 07:30N 49°29' E 000°07'0 0.0
2017-Aug-17 07:00N 49°29' E 000°07'0 0.0
2017-Aug-17 06:30N 49°29' E 000°07'2 4.8
2017-Aug-17 06:00N 49°30' E 000°03'815.2
2017-Aug-17 05:31N 49°36' W 000°04'3 6.0
2017-Aug-17 05:01N 49°39' W 000°04'1 2.4
2017-Aug-17 04:30N 49°38' W 000°04'1 2.4
2017-Aug-17 04:00N 49°39' W 000°05'815.4
2017-Aug-17 03:30N 49°45' W 000°11'2814.5
2017-Aug-17 01:36N 50°09' W 000°32'2315.0
2017-Aug-17 00:05N 50°30' W 000°47'115.7
2017-Aug-17 00:00N 50°31' W 000°48'714.3
2017-Aug-16 23:31N 50°37' W 000°54'713.2
2017-Aug-16 23:01N 50°43' W 000°60'612.9
2017-Aug-16 22:30N 50°47' W 001°07'1 2.7
2017-Aug-16 22:00N 50°49' W 001°06'0 0.0
2017-Aug-16 21:30N 50°49' W 001°06'0 0.0
2017-Aug-16 21:00N 50°49' W 001°06'0 0.0
2017-Aug-16 20:30N 50°49' W 001°06'1 1.5
2017-Aug-16 20:01N 50°48' W 001°07'714.0
2017-Aug-16 19:30N 50°43' W 000°60'1020.8
2017-Aug-16 19:01N 50°34' W 000°50'1121.3
2017-Aug-16 18:31N 50°25' W 000°42'1120.8
2017-Aug-16 17:59N 50°15' W 000°36'1021.0
2017-Aug-16 17:31N 50°06' W 000°28'1020.7
2017-Aug-16 17:00N 49°57' W 000°20'1020.6
2017-Aug-16 16:30N 49°48' W 000°13'1020.8
2017-Aug-16 16:01N 49°39' W 000°06'1019.8
2017-Aug-16 15:30N 49°30' E 000°02'4 7.2
2017-Aug-16 15:01N 49°29' E 000°07'0 0.0
2017-Aug-16 14:31N 49°29' E 000°07'0 0.0
2017-Aug-16 14:01N 49°29' E 000°07'0 0.0
2017-Aug-16 13:31N 49°29' E 000°07'0 0.0
2017-Aug-16 13:01N 49°29' E 000°07'0 0.0
2017-Aug-16 12:31N 49°29' E 000°07'0 0.0
2017-Aug-16 12:01N 49°29' E 000°07'0 0.0
2017-Aug-16 11:31N 49°29' E 000°07'0 0.0
2017-Aug-16 11:01N 49°29' E 000°07'0 0.0
2017-Aug-16 10:31N 49°29' E 000°07'0 0.0
2017-Aug-16 10:01N 49°29' E 000°07'0 0.0
2017-Aug-16 09:31N 49°29' E 000°07'0 0.0
2017-Aug-16 09:01N 49°29' E 000°07'0 0.0
2017-Aug-16 08:31N 49°29' E 000°07'0 0.0
2017-Aug-16 08:01N 49°29' E 000°07'0 0.0
2017-Aug-16 07:31N 49°29' E 000°07'0 0.0
2017-Aug-16 07:01N 49°29' E 000°07'0 0.0
2017-Aug-16 06:31N 49°29' E 000°07'2 4.5
2017-Aug-16 06:00N 49°30' E 000°03'714.0
2017-Aug-16 05:30N 49°35' W 000°03'611.1
2017-Aug-16 05:01N 49°41' W 000°05'1 1.4
2017-Aug-16 04:30N 49°40' W 000°06'1 2.6
2017-Aug-16 04:00N 49°41' W 000°08'714.3
2017-Aug-16 03:30N 49°47' W 000°14'714.4
2017-Aug-16 02:59N 49°53' W 000°19'714.5
2017-Aug-16 02:30N 49°60' W 000°24'714.7
2017-Aug-16 02:01N 50°06' W 000°29'714.6
2017-Aug-16 01:31N 50°13' W 000°34'816.8
2017-Aug-16 01:00N 50°21' W 000°39'714.3
2017-Aug-16 00:31N 50°27' W 000°45'714.3
2017-Aug-16 00:00N 50°32' W 000°52'815.6
2017-Aug-15 23:30N 50°39' W 000°58'713.1
2017-Aug-15 23:00N 50°44' W 001°04'4 9.0
2017-Aug-15 22:30N 50°49' W 001°06'0 0.0
2017-Aug-15 22:00N 50°49' W 001°06'0 0.0
2017-Aug-15 21:30N 50°49' W 001°06'0 0.0
2017-Aug-15 21:00N 50°49' W 001°06'0 0.0
2017-Aug-15 20:30N 50°49' W 001°06'2 3.4
2017-Aug-15 20:00N 50°47' W 001°06'612.8
2017-Aug-15 19:30N 50°42' W 000°60'1019.7
2017-Aug-15 19:00N 50°35' W 000°50'1020.3
2017-Aug-15 18:31N 50°25' W 000°43'1020.1
2017-Aug-15 18:00N 50°17' W 000°35'1020.5
2017-Aug-15 17:30N 50°07' W 000°28'1020.5
2017-Aug-15 17:01N 49°58' W 000°21'1120.3
2017-Aug-15 16:29N 49°49' W 000°13'1020.4
2017-Aug-15 16:00N 49°40' W 000°06'1019.8
2017-Aug-15 15:30N 49°32' E 000°01'5 9.3
2017-Aug-15 15:00N 49°29' E 000°07'0 0.0
2017-Aug-15 14:30N 49°29' E 000°07'0 0.0
2017-Aug-15 14:00N 49°29' E 000°07'0 0.0
2017-Aug-15 13:30N 49°29' E 000°07'0 0.0
2017-Aug-15 13:00N 49°29' E 000°07'0 0.0
2017-Aug-15 12:30N 49°29' E 000°07'0 0.0
2017-Aug-15 12:00N 49°29' E 000°07'0 0.0
2017-Aug-15 11:30N 49°29' E 000°07'0 0.0
2017-Aug-15 11:00N 49°29' E 000°07'0 0.0
2017-Aug-15 10:30N 49°29' E 000°07'0 0.0
2017-Aug-15 10:00N 49°29' E 000°07'0 0.0
2017-Aug-15 09:30N 49°29' E 000°07'0 0.0
2017-Aug-15 09:00N 49°29' E 000°07'0 0.0
2017-Aug-15 08:30N 49°29' E 000°07'0 0.0
2017-Aug-15 08:00N 49°29' E 000°07'0 0.0
2017-Aug-15 07:30N 49°29' E 000°07'0 0.0
2017-Aug-15 07:00N 49°29' E 000°07'0 0.0
2017-Aug-15 06:30N 49°29' E 000°07'2 3.4
2017-Aug-15 06:01N 49°29' E 000°04'1019.5
2017-Aug-15 05:30N 49°37' W 000°05'3 5.3
2017-Aug-15 05:00N 49°40' W 000°05'0 0.9
2017-Aug-15 04:31N 49°40' W 000°05'1 1.1
2017-Aug-15 04:00N 49°41' W 000°05'713.2
2017-Aug-15 03:30N 49°46' W 000°11'815.1
2017-Aug-15 03:00N 49°52' W 000°16'815.2
2017-Aug-15 02:30N 49°59' W 000°22'815.3
2017-Aug-15 02:00N 50°06' W 000°27'815.4
2017-Aug-15 01:30N 50°13' W 000°32'815.5
2017-Aug-15 01:00N 50°20' W 000°38'815.4
2017-Aug-15 00:30N 50°26' W 000°45'815.7
2017-Aug-15 00:00N 50°33' W 000°51'815.7
2017-Aug-14 23:30N 50°40' W 000°57'815.1
2017-Aug-14 23:01N 50°45' W 001°05'4 7.1
2017-Aug-14 22:31N 50°49' W 001°06'0 0.0
2017-Aug-14 22:01N 50°49' W 001°06'0 0.0
2017-Aug-14 21:30N 50°49' W 001°06'0 0.0
2017-Aug-14 21:00N 50°49' W 001°06'0 0.1
2017-Aug-14 20:30N 50°49' W 001°06'2 4.6
2017-Aug-14 20:00N 50°46' W 001°06'611.7
2017-Aug-14 19:30N 50°43' W 000°59'918.6
2017-Aug-14 19:00N 50°34' W 000°52'917.6
2017-Aug-14 18:30N 50°26' W 000°46'918.5
2017-Aug-14 18:00N 50°18' W 000°39'1020.5
2017-Aug-14 17:30N 50°09' W 000°31'1121.3
2017-Aug-14 17:00N 49°60' W 000°24'1121.2
2017-Aug-14 16:30N 49°50' W 000°16'1020.9
2017-Aug-14 16:00N 49°41' W 000°09'1020.5
2017-Aug-14 15:30N 49°32' W 000°00'611.4
2017-Aug-14 15:00N 49°29' E 000°07'0 0.0
2017-Aug-14 14:30N 49°29' E 000°07'0 0.0
2017-Aug-14 14:00N 49°29' E 000°07'0 0.0
2017-Aug-14 13:30N 49°29' E 000°07'0 0.0
2017-Aug-14 13:00N 49°29' E 000°07'0 0.0
2017-Aug-14 12:30N 49°29' E 000°07'0 0.0
2017-Aug-14 12:00N 49°29' E 000°07'0 0.0
2017-Aug-14 11:30N 49°29' E 000°07'0 0.0
2017-Aug-14 11:00N 49°29' E 000°07'0 0.0
2017-Aug-14 10:31N 49°29' E 000°07'0 0.0
2017-Aug-14 10:00N 49°29' E 000°07'0 0.0
2017-Aug-14 09:30N 49°29' E 000°07'0 0.0
2017-Aug-14 09:00N 49°29' E 000°07'0 0.0
2017-Aug-14 08:31N 49°29' E 000°07'0 0.0
2017-Aug-14 08:00N 49°29' E 000°07'0 0.0
2017-Aug-14 07:30N 49°29' E 000°07'0 0.0
2017-Aug-14 07:00N 49°29' E 000°07'0 0.0
2017-Aug-14 06:30N 49°29' E 000°07'2 3.6
2017-Aug-14 06:00N 49°29' E 000°04'1019.2
2017-Aug-14 05:30N 49°38' W 000°03'2 4.4
2017-Aug-14 05:00N 49°40' W 000°04'0 0.5
2017-Aug-14 04:30N 49°40' W 000°04'2 3.4
2017-Aug-14 04:00N 49°41' W 000°05'714.2
2017-Aug-14 03:30N 49°47' W 000°12'714.5
2017-Aug-14 03:00N 49°54' W 000°16'714.8
2017-Aug-14 02:30N 50°01' W 000°21'714.9
2017-Aug-14 02:00N 50°07' W 000°26'715.0
2017-Aug-14 01:30N 50°14' W 000°31'715.0
2017-Aug-14 01:00N 50°20' W 000°37'714.8
2017-Aug-14 00:30N 50°27' W 000°43'815.2
2017-Aug-14 00:00N 50°33' W 000°49'815.5
2017-Aug-13 23:30N 50°40' W 000°56'714.9
2017-Aug-13 23:00N 50°44' W 001°05'4 8.4
2017-Aug-13 22:30N 50°49' W 001°06'0 0.0
2017-Aug-13 22:01N 50°49' W 001°06'0 0.0
2017-Aug-13 21:31N 50°49' W 001°06'0 0.0
2017-Aug-13 21:00N 50°49' W 001°06'0 0.0
2017-Aug-13 20:30N 50°49' W 001°06'1 2.7
2017-Aug-13 20:01N 50°47' W 001°07'714.0
2017-Aug-13 19:31N 50°43' W 000°59'918.1
2017-Aug-13 19:00N 50°34' W 000°53'919.0
2017-Aug-13 18:30N 50°26' W 000°45'918.6
2017-Aug-13 18:01N 50°18' W 000°38'1019.2
2017-Aug-13 17:30N 50°09' W 000°31'1019.1
2017-Aug-13 17:01N 50°01' W 000°24'1320.5
2017-Aug-13 16:23N 49°50' W 000°15'821.4
2017-Aug-13 16:01N 49°43' W 000°09'1020.7
2017-Aug-13 15:31N 49°34' W 000°02'713.9
2017-Aug-13 15:00N 49°29' E 000°07'0 0.0
2017-Aug-13 14:30N 49°29' E 000°07'0 0.0
2017-Aug-13 14:01N 49°29' E 000°07'0 0.0
2017-Aug-13 13:31N 49°29' E 000°07'0 0.0
2017-Aug-13 13:00N 49°29' E 000°07'0 0.0
2017-Aug-13 12:30N 49°29' E 000°07'0 0.0
2017-Aug-13 12:01N 49°29' E 000°07'0 0.0
2017-Aug-13 11:30N 49°29' E 000°07'0 0.0
2017-Aug-13 11:00N 49°29' E 000°07'0 0.0
2017-Aug-13 10:31N 49°29' E 000°07'0 0.0
2017-Aug-13 10:00N 49°29' E 000°07'0 0.0
2017-Aug-13 09:30N 49°29' E 000°07'0 0.0
2017-Aug-13 09:01N 49°29' E 000°07'0 0.0
2017-Aug-13 08:31N 49°29' E 000°07'0 0.0
2017-Aug-13 08:00N 49°29' E 000°07'0 0.0
2017-Aug-13 07:30N 49°29' E 000°07'0 0.0
2017-Aug-13 07:00N 49°29' E 000°07'0 0.0
2017-Aug-13 06:30N 49°29' E 000°07'1 2.9
2017-Aug-13 06:00N 49°29' E 000°05'815.7
2017-Aug-13 05:30N 49°34' W 000°05'510.5
2017-Aug-13 05:00N 49°38' W 000°11'510.3
2017-Aug-13 04:30N 49°42' W 000°16'8 9.4
2017-Aug-13 03:39N 49°50' W 000°19'210.6
2017-Aug-13 03:29N 49°52' W 000°18'2610.4
2017-Aug-13 01:01N 50°14' W 000°36'1714.9
2017-Aug-12 23:52N 50°30' W 000°48'615.5
2017-Aug-12 23:31N 50°35' W 000°52'815.1
2017-Aug-12 23:01N 50°41' W 000°57'714.6
2017-Aug-12 22:30N 50°46' W 001°06'2 4.5
2017-Aug-12 22:00N 50°49' W 001°06'0 0.0
2017-Aug-12 21:30N 50°49' W 001°06'0 0.0
2017-Aug-12 21:00N 50°49' W 001°06'0 0.0
2017-Aug-12 20:30N 50°49' W 001°06'0 0.8
2017-Aug-12 20:01N 50°49' W 001°06'611.7
2017-Aug-12 19:30N 50°44' W 001°02'917.8
2017-Aug-12 19:00N 50°36' W 000°54'1319.7
2017-Aug-12 18:22N 50°24' W 000°48'3320.4
2017-Aug-12 16:46N 49°57' W 000°21'620.7
2017-Aug-12 16:30N 49°52' W 000°17'1020.5
2017-Aug-12 16:00N 49°43' W 000°09'1020.3
2017-Aug-12 15:30N 49°34' W 000°02'714.4
2017-Aug-12 15:00N 49°29' E 000°07'0 0.0
2017-Aug-12 14:30N 49°29' E 000°07'0 0.0
2017-Aug-12 14:01N 49°29' E 000°07'0 0.0
2017-Aug-12 13:30N 49°29' E 000°07'0 0.0
2017-Aug-12 13:01N 49°29' E 000°07'0 0.0
2017-Aug-12 12:30N 49°29' E 000°07'0 0.0
2017-Aug-12 12:01N 49°29' E 000°07'0 0.0
2017-Aug-12 11:30N 49°29' E 000°07'0 0.0
2017-Aug-12 11:00N 49°29' E 000°07'0 0.0
2017-Aug-12 10:31N 49°29' E 000°07'0 0.0
2017-Aug-12 10:01N 49°29' E 000°07'0 0.0
2017-Aug-12 09:31N 49°29' E 000°07'0 0.0
2017-Aug-12 09:01N 49°29' E 000°07'0 0.0
2017-Aug-12 08:30N 49°29' E 000°07'0 0.0
2017-Aug-12 08:00N 49°29' E 000°07'0 0.0
2017-Aug-12 07:30N 49°29' E 000°07'0 0.0
2017-Aug-12 07:00N 49°29' E 000°07'0 0.0
2017-Aug-12 06:30N 49°29' E 000°07'0 0.0
2017-Aug-12 06:00N 49°29' E 000°07'1 2.9
2017-Aug-12 05:31N 49°29' E 000°04'714.5
2017-Aug-12 05:00N 49°35' W 000°03'611.3
2017-Aug-12 04:30N 49°40' W 000°07'611.0
2017-Aug-12 04:00N 49°45' W 000°11'44 9.9
2017-Aug-11 23:29N 50°23' W 000°46'5 9.8
2017-Aug-11 23:00N 50°27' W 000°49'510.0
2017-Aug-11 22:30N 50°32' W 000°51'510.2
2017-Aug-11 22:00N 50°37' W 000°54'510.1
2017-Aug-11 21:30N 50°41' W 000°58'612.4
2017-Aug-11 21:01N 50°45' W 001°05'3 6.8
2017-Aug-11 20:30N 50°49' W 001°06'0 0.0
2017-Aug-11 20:00N 50°49' W 001°06'0 0.0
2017-Aug-11 19:31N 50°49' W 001°06'0 0.0
2017-Aug-11 19:01N 50°49' W 001°06'0 0.0
2017-Aug-11 18:31N 50°49' W 001°06'0 0.0
2017-Aug-11 18:01N 50°49' W 001°06'0 0.0
2017-Aug-11 17:30N 50°49' W 001°06'0 0.0
2017-Aug-11 17:00N 50°49' W 001°06'0 0.0
2017-Aug-11 16:30N 50°49' W 001°06'0 0.0
2017-Aug-11 16:00N 50°49' W 001°06'0 0.0
2017-Aug-11 15:30N 50°49' W 001°06'0 0.0
2017-Aug-11 15:00N 50°49' W 001°06'0 0.0
2017-Aug-11 14:30N 50°49' W 001°06'0 0.0
2017-Aug-11 13:30N 50°49' W 001°06'0 0.0
2017-Aug-11 13:00N 50°49' W 001°06'0 0.0
2017-Aug-11 12:30N 50°49' W 001°06'0 0.0
2017-Aug-11 12:00N 50°49' W 001°06'0 0.0
2017-Aug-11 11:30N 50°49' W 001°06'0 0.0
2017-Aug-11 11:00N 50°49' W 001°06'0 0.0
2017-Aug-11 10:30N 50°49' W 001°06'0 0.0
2017-Aug-11 10:00N 50°49' W 001°06'0 0.0
2017-Aug-11 09:30N 50°49' W 001°06'0 0.0
2017-Aug-11 08:58N 50°49' W 001°06'0 0.0
2017-Aug-11 08:30N 50°49' W 001°06'0 0.0
2017-Aug-11 08:00N 50°49' W 001°06'0 0.0
2017-Aug-11 07:30N 50°49' W 001°06'0 0.0
2017-Aug-11 07:00N 50°49' W 001°06'1 2.0
2017-Aug-11 06:30N 50°48' W 001°07'713.5
2017-Aug-11 06:00N 50°43' W 000°60'816.4
2017-Aug-11 05:30N 50°36' W 000°52'816.1
2017-Aug-11 05:00N 50°29' W 000°46'815.2
2017-Aug-11 04:30N 50°23' W 000°40'714.2
2017-Aug-11 04:00N 50°16' W 000°36'1014.9
2017-Aug-11 03:21N 50°07' W 000°29'615.5
2017-Aug-11 02:59N 50°02' W 000°25'1015.3
2017-Aug-11 02:22N 49°54' W 000°18'515.3
2017-Aug-11 02:00N 49°49' W 000°14'815.2
2017-Aug-11 01:30N 49°43' W 000°07'714.0
2017-Aug-11 01:00N 49°38' W 000°00'0 0.5
2017-Aug-11 00:30N 49°38' W 000°00'0 0.5
2017-Aug-11 00:00N 49°38' W 000°00'0 0.7
2017-Aug-10 23:30N 49°38' W 000°01'0 0.7
2017-Aug-10 23:00N 49°38' W 000°01'0 0.7
2017-Aug-10 22:30N 49°38' W 000°02'0 0.6
2017-Aug-10 22:00N 49°38' W 000°02'0 0.4
2017-Aug-10 21:30N 49°38' W 000°03'1 2.8
2017-Aug-10 21:00N 49°36' W 000°03'510.8
2017-Aug-10 20:31N 49°31' E 000°00'5 9.2
2017-Aug-10 20:00N 49°29' E 000°07'0 0.0
2017-Aug-10 19:30N 49°29' E 000°07'0 0.0
2017-Aug-10 19:00N 49°29' E 000°07'0 0.0
2017-Aug-10 18:30N 49°29' E 000°07'0 0.0
2017-Aug-10 18:00N 49°29' E 000°07'0 0.0
2017-Aug-10 17:30N 49°29' E 000°07'0 0.0
2017-Aug-10 17:00N 49°29' E 000°07'0 0.0
2017-Aug-10 16:30N 49°29' E 000°07'0 0.0
2017-Aug-10 16:00N 49°29' E 000°07'0 0.0
2017-Aug-10 15:30N 49°29' E 000°07'0 0.0
2017-Aug-10 15:00N 49°29' E 000°07'0 0.0
2017-Aug-10 14:30N 49°29' E 000°07'0 0.0
2017-Aug-10 14:00N 49°29' E 000°07'0 0.0
2017-Aug-10 13:30N 49°29' E 000°07'0 0.0
2017-Aug-10 13:00N 49°29' E 000°07'0 0.0
2017-Aug-10 12:30N 49°29' E 000°07'0 0.0
2017-Aug-10 12:00N 49°29' E 000°07'0 0.0
2017-Aug-10 11:30N 49°29' E 000°07'0 0.0
2017-Aug-10 11:00N 49°29' E 000°07'0 0.0
2017-Aug-10 10:30N 49°29' E 000°07'0 0.0
2017-Aug-10 10:00N 49°29' E 000°07'0 0.0
2017-Aug-10 09:30N 49°29' E 000°07'0 0.0
2017-Aug-10 09:00N 49°29' E 000°07'0 0.0
2017-Aug-10 08:30N 49°29' E 000°07'0 0.0
2017-Aug-10 08:00N 49°29' E 000°07'0 0.0
2017-Aug-10 07:30N 49°29' E 000°07'0 0.0
2017-Aug-10 07:00N 49°29' E 000°07'0 0.0
2017-Aug-10 06:30N 49°29' E 000°07'1 2.2
2017-Aug-10 06:01N 49°29' E 000°05'815.1
2017-Aug-10 05:31N 49°35' W 000°03'714.3
2017-Aug-10 05:01N 49°41' W 000°08'713.6
2017-Aug-10 04:31N 49°47' W 000°13'510.7
2017-Aug-10 04:00N 49°52' W 000°18'4411.7
2017-Aug-10 00:12N 50°31' W 000°49'314.8
2017-Aug-10 00:01N 50°34' W 000°51'714.5
2017-Aug-09 23:31N 50°40' W 000°56'714.6
2017-Aug-09 23:01N 50°45' W 001°05'4 7.7
2017-Aug-09 22:30N 50°49' W 001°06'0 0.0
2017-Aug-09 22:01N 50°49' W 001°06'0 0.0
2017-Aug-09 21:30N 50°49' W 001°06'0 0.0
2017-Aug-09 21:00N 50°49' W 001°06'0 0.0
2017-Aug-09 20:30N 50°49' W 001°06'1 1.7
2017-Aug-09 20:00N 50°48' W 001°07'612.3
2017-Aug-09 19:31N 50°43' W 001°01'918.2
2017-Aug-09 19:01N 50°36' W 000°53'1019.1
2017-Aug-09 18:30N 50°28' W 000°44'4120.6
2017-Aug-09 16:32N 49°51' W 000°16'121.6
2017-Aug-09 16:30N 49°51' W 000°16'  

Dump ship's entire track history